Hlavní strana
METAR-TAF:

METAR-TAF

Letiště :

Gabès, Tunisko

zeměpisná šířka: 33-53N, zeměpisná délka: 010-06E, výška: 4 m

Aktuální stav počasí

Zpráva byla vytvořena před 30 minutami, v 00:00 UTC
Východní vítr 18 kt
Teplota 16°C
Vlhkost vzduchu 82%
Tlak 1015 hPa
Viditelnost: 6000 m
Polojasno ve výšce 3000 ft

METAR: DTTG 200000Z 08018KT 6000 SCT030 16/13 Q1015 NOSIG

Čas: 01:30 (00:30 UTC)

Předpověď počasí

Zpráva byla vytvořena před 3 hodinami a 30 minutami, v 21:00 UTC
Předpověď platná od 19 v 22 UTC do 20 v 07 UTC
Východní vítr 22 kt
Viditelnost: 6000 m
Polojasno ve výšce 3000 ft
Pravděpodobnost 40% :
Dočasný
od 19 v 22 UTC do 20 v 07 UTC
Východoseverovýchodní vítr 20 kt s nárazy do 35 kt
Viditelnost: 2000 m
písek

TAF: DTTG 192100Z 1922/2007 08022KT 6000 SCT030 PROB40 TEMPO 1922/2007 07020G35KT 2000 SA

Stav a předpovědi počasí z více než 4 000 letišť (zprávy METAR a TAF).

Červené a žluté tečky na mapě představují dostupné meteorologické stanice.

Když kurzor umístíte na tečku, zobrazí se název stanice.

Pak kliknutím zobrazíte stav a předpověď počasí.

Chcete-li změnit mapu, kliknutím na zelené tlačítko se znaménkem +mapu přiblížíte, kliknutím na zelené tlačítko se znaménkem – mapu oddálíte a kliknutím na zelené šipky přejdete na sousední mapy.


METAR-TAF: